sensor_id;sensor_type;location;lat;lon;timestamp;temperature;humidity
26707;DHT22;14319;49.422;10.934;2022-08-25T00:02:00;18.90;80.30
26707;DHT22;14319;49.422;10.934;2022-08-25T00:04:03;19.00;80.20
26707;DHT22;14319;49.422;10.934;2022-08-25T00:06:05;19.00;79.70
26707;DHT22;14319;49.422;10.934;2022-08-25T00:08:07;18.90;79.50
26707;DHT22;14319;49.422;10.934;2022-08-25T00:10:09;18.70;80.50
26707;DHT22;14319;49.422;10.934;2022-08-25T00:12:09;18.60;81.10
26707;DHT22;14319;49.422;10.934;2022-08-25T00:14:14;18.60;81.10
26707;DHT22;14319;49.422;10.934;2022-08-25T00:16:18;18.60;81.20
26707;DHT22;14319;49.422;10.934;2022-08-25T00:18:20;18.60;81.20
26707;DHT22;14319;49.422;10.934;2022-08-25T00:20:21;18.70;81.00
26707;DHT22;14319;49.422;10.934;2022-08-25T00:22:22;18.70;80.70
26707;DHT22;14319;49.422;10.934;2022-08-25T00:24:23;18.70;80.80
26707;DHT22;14319;49.422;10.934;2022-08-25T00:26:24;18.80;80.90
26707;DHT22;14319;49.422;10.934;2022-08-25T00:28:27;18.80;81.10
26707;DHT22;14319;49.422;10.934;2022-08-25T00:30:30;18.70;81.20
26707;DHT22;14319;49.422;10.934;2022-08-25T00:32:31;18.30;81.70
26707;DHT22;14319;49.422;10.934;2022-08-25T00:34:37;18.10;83.30
26707;DHT22;14319;49.422;10.934;2022-08-25T00:36:39;18.20;83.30
26707;DHT22;14319;49.422;10.934;2022-08-25T00:38:41;18.10;83.30
26707;DHT22;14319;49.422;10.934;2022-08-25T00:40:43;18.20;84.00
26707;DHT22;14319;49.422;10.934;2022-08-25T00:42:44;18.30;83.70
26707;DHT22;14319;49.422;10.934;2022-08-25T00:44:44;18.30;82.40
26707;DHT22;14319;49.422;10.934;2022-08-25T00:46:51;17.90;84.00
26707;DHT22;14319;49.422;10.934;2022-08-25T00:48:59;17.70;84.70
26707;DHT22;14319;49.422;10.934;2022-08-25T00:51:02;17.80;84.70
26707;DHT22;14319;49.422;10.934;2022-08-25T00:53:03;17.90;84.80
26707;DHT22;14319;49.422;10.934;2022-08-25T00:55:15;17.90;84.40
26707;DHT22;14319;49.422;10.934;2022-08-25T00:57:21;17.80;84.90
26707;DHT22;14319;49.422;10.934;2022-08-25T00:59:24;17.80;84.90
26707;DHT22;14319;49.422;10.934;2022-08-25T01:01:26;17.90;84.90
26707;DHT22;14319;49.422;10.934;2022-08-25T01:03:29;18.00;84.10
26707;DHT22;14319;49.422;10.934;2022-08-25T01:05:30;18.00;84.40
26707;DHT22;14319;49.422;10.934;2022-08-25T01:07:31;18.00;84.10
26707;DHT22;14319;49.422;10.934;2022-08-25T01:09:33;18.00;84.40
26707;DHT22;14319;49.422;10.934;2022-08-25T01:11:34;18.00;84.70
26707;DHT22;14319;49.422;10.934;2022-08-25T01:13:48;18.00;84.10
26707;DHT22;14319;49.422;10.934;2022-08-25T01:15:54;17.90;84.20
26707;DHT22;14319;49.422;10.934;2022-08-25T01:17:56;17.70;85.30
26707;DHT22;14319;49.422;10.934;2022-08-25T01:19:56;17.60;85.60
26707;DHT22;14319;49.422;10.934;2022-08-25T01:21:58;17.70;85.60
26707;DHT22;14319;49.422;10.934;2022-08-25T01:24:00;17.70;85.20
26707;DHT22;14319;49.422;10.934;2022-08-25T01:26:06;17.70;85.20
26707;DHT22;14319;49.422;10.934;2022-08-25T01:28:08;17.70;84.80
26707;DHT22;14319;49.422;10.934;2022-08-25T01:30:09;17.80;84.70
26707;DHT22;14319;49.422;10.934;2022-08-25T01:32:11;17.80;84.50
26707;DHT22;14319;49.422;10.934;2022-08-25T01:34:15;17.80;84.10
26707;DHT22;14319;49.422;10.934;2022-08-25T01:36:18;17.70;84.30
26707;DHT22;14319;49.422;10.934;2022-08-25T01:38:19;17.60;84.10
26707;DHT22;14319;49.422;10.934;2022-08-25T01:40:20;17.50;85.00
26707;DHT22;14319;49.422;10.934;2022-08-25T01:42:51;17.40;85.20
26707;DHT22;14319;49.422;10.934;2022-08-25T01:44:53;17.50;85.50
26707;DHT22;14319;49.422;10.934;2022-08-25T01:46:54;17.50;85.20
26707;DHT22;14319;49.422;10.934;2022-08-25T01:48:54;17.40;85.50
26707;DHT22;14319;49.422;10.934;2022-08-25T01:50:55;17.50;85.50
26707;DHT22;14319;49.422;10.934;2022-08-25T01:53:03;17.50;85.40
26707;DHT22;14319;49.422;10.934;2022-08-25T01:55:06;17.50;85.20
26707;DHT22;14319;49.422;10.934;2022-08-25T01:57:07;17.40;85.40
26707;DHT22;14319;49.422;10.934;2022-08-25T01:59:09;17.20;85.70
26707;DHT22;14319;49.422;10.934;2022-08-25T02:01:13;17.00;87.80
26707;DHT22;14319;49.422;10.934;2022-08-25T02:03:16;17.00;87.90
26707;DHT22;14319;49.422;10.934;2022-08-25T02:05:18;17.00;87.50
26707;DHT22;14319;49.422;10.934;2022-08-25T02:07:19;17.20;87.10
26707;DHT22;14319;49.422;10.934;2022-08-25T02:09:20;17.30;86.50
26707;DHT22;14319;49.422;10.934;2022-08-25T02:11:21;17.30;86.00
26707;DHT22;14319;49.422;10.934;2022-08-25T02:13:23;17.40;85.90
26707;DHT22;14319;49.422;10.934;2022-08-25T02:15:24;17.40;85.80
26707;DHT22;14319;49.422;10.934;2022-08-25T02:17:26;17.40;86.40
26707;DHT22;14319;49.422;10.934;2022-08-25T02:19:26;17.40;85.50
26707;DHT22;14319;49.422;10.934;2022-08-25T02:21:30;17.20;85.90
26707;DHT22;14319;49.422;10.934;2022-08-25T02:23:31;17.20;86.70
26707;DHT22;14319;49.422;10.934;2022-08-25T02:25:32;17.20;86.70
26707;DHT22;14319;49.422;10.934;2022-08-25T02:27:33;17.10;87.00
26707;DHT22;14319;49.422;10.934;2022-08-25T02:29:34;17.20;86.60
26707;DHT22;14319;49.422;10.934;2022-08-25T02:31:36;17.20;86.20
26707;DHT22;14319;49.422;10.934;2022-08-25T02:33:37;17.10;86.30
26707;DHT22;14319;49.422;10.934;2022-08-25T02:35:38;17.20;86.20
26707;DHT22;14319;49.422;10.934;2022-08-25T02:37:39;17.20;85.70
26707;DHT22;14319;49.422;10.934;2022-08-25T02:39:40;17.20;85.40
26707;DHT22;14319;49.422;10.934;2022-08-25T02:41:40;17.20;85.00
26707;DHT22;14319;49.422;10.934;2022-08-25T02:43:42;17.10;85.40
26707;DHT22;14319;49.422;10.934;2022-08-25T02:45:43;17.10;85.40
26707;DHT22;14319;49.422;10.934;2022-08-25T02:47:45;17.00;85.40
26707;DHT22;14319;49.422;10.934;2022-08-25T02:49:47;17.10;85.50
26707;DHT22;14319;49.422;10.934;2022-08-25T02:51:48;17.10;85.40
26707;DHT22;14319;49.422;10.934;2022-08-25T02:53:49;17.00;85.70
26707;DHT22;14319;49.422;10.934;2022-08-25T02:55:50;16.90;86.80
26707;DHT22;14319;49.422;10.934;2022-08-25T02:57:51;16.60;88.10
26707;DHT22;14319;49.422;10.934;2022-08-25T02:59:51;16.60;88.00
26707;DHT22;14319;49.422;10.934;2022-08-25T03:01:53;16.60;88.30
26707;DHT22;14319;49.422;10.934;2022-08-25T03:03:55;16.60;88.10
26707;DHT22;14319;49.422;10.934;2022-08-25T03:05:56;16.80;87.70
26707;DHT22;14319;49.422;10.934;2022-08-25T03:07:57;16.50;88.50
26707;DHT22;14319;49.422;10.934;2022-08-25T03:09:57;16.50;88.50
26707;DHT22;14319;49.422;10.934;2022-08-25T03:11:58;16.30;89.00
26707;DHT22;14319;49.422;10.934;2022-08-25T03:13:59;16.30;89.10
26707;DHT22;14319;49.422;10.934;2022-08-25T03:16:02;16.40;89.50
26707;DHT22;14319;49.422;10.934;2022-08-25T03:18:04;16.50;88.90
26707;DHT22;14319;49.422;10.934;2022-08-25T03:20:06;16.50;88.40
26707;DHT22;14319;49.422;10.934;2022-08-25T03:22:07;16.60;88.20
26707;DHT22;14319;49.422;10.934;2022-08-25T03:24:07;16.70;88.40
26707;DHT22;14319;49.422;10.934;2022-08-25T03:26:08;16.80;88.20
26707;DHT22;14319;49.422;10.934;2022-08-25T03:28:28;16.90;88.20
26707;DHT22;14319;49.422;10.934;2022-08-25T03:30:30;17.00;87.40
26707;DHT22;14319;49.422;10.934;2022-08-25T03:32:31;16.90;87.40
26707;DHT22;14319;49.422;10.934;2022-08-25T03:34:32;16.90;87.30
26707;DHT22;14319;49.422;10.934;2022-08-25T03:36:33;16.90;86.60
26707;DHT22;14319;49.422;10.934;2022-08-25T03:38:34;16.80;87.00
26707;DHT22;14319;49.422;10.934;2022-08-25T03:40:37;16.80;86.50
26707;DHT22;14319;49.422;10.934;2022-08-25T03:42:43;16.80;86.80
26707;DHT22;14319;49.422;10.934;2022-08-25T03:44:44;16.80;87.10
26707;DHT22;14319;49.422;10.934;2022-08-25T03:46:47;16.90;87.10
26707;DHT22;14319;49.422;10.934;2022-08-25T03:48:48;16.90;87.60
26707;DHT22;14319;49.422;10.934;2022-08-25T03:50:50;16.80;88.00
26707;DHT22;14319;49.422;10.934;2022-08-25T03:52:56;16.70;87.80
26707;DHT22;14319;49.422;10.934;2022-08-25T03:54:56;16.80;87.60
26707;DHT22;14319;49.422;10.934;2022-08-25T03:56:57;16.80;86.70
26707;DHT22;14319;49.422;10.934;2022-08-25T03:58:58;16.80;86.60
26707;DHT22;14319;49.422;10.934;2022-08-25T04:00:59;16.80;86.60
26707;DHT22;14319;49.422;10.934;2022-08-25T04:03:00;16.70;86.30
26707;DHT22;14319;49.422;10.934;2022-08-25T04:05:00;16.70;86.20
26707;DHT22;14319;49.422;10.934;2022-08-25T04:07:01;16.70;86.00
26707;DHT22;14319;49.422;10.934;2022-08-25T04:09:02;16.70;86.10
26707;DHT22;14319;49.422;10.934;2022-08-25T04:11:16;16.60;86.50
26707;DHT22;14319;49.422;10.934;2022-08-25T04:13:17;16.70;86.80
26707;DHT22;14319;49.422;10.934;2022-08-25T04:15:18;16.70;86.80
26707;DHT22;14319;49.422;10.934;2022-08-25T04:17:19;16.50;86.80
26707;DHT22;14319;49.422;10.934;2022-08-25T04:19:20;16.30;88.80
26707;DHT22;14319;49.422;10.934;2022-08-25T04:21:22;16.10;88.10
26707;DHT22;14319;49.422;10.934;2022-08-25T04:23:24;16.10;87.80
26707;DHT22;14319;49.422;10.934;2022-08-25T04:25:25;16.20;87.90
26707;DHT22;14319;49.422;10.934;2022-08-25T04:27:26;16.20;87.80
26707;DHT22;14319;49.422;10.934;2022-08-25T04:29:26;16.30;87.70
26707;DHT22;14319;49.422;10.934;2022-08-25T04:31:28;16.30;87.70
26707;DHT22;14319;49.422;10.934;2022-08-25T04:33:29;16.30;88.00
26707;DHT22;14319;49.422;10.934;2022-08-25T04:35:29;16.20;88.50
26707;DHT22;14319;49.422;10.934;2022-08-25T04:37:30;16.30;89.30
26707;DHT22;14319;49.422;10.934;2022-08-25T04:39:33;16.20;91.20
26707;DHT22;14319;49.422;10.934;2022-08-25T04:41:33;16.30;91.10
26707;DHT22;14319;49.422;10.934;2022-08-25T04:43:36;16.30;89.80
26707;DHT22;14319;49.422;10.934;2022-08-25T04:45:39;16.30;89.50
26707;DHT22;14319;49.422;10.934;2022-08-25T04:47:40;16.40;88.80
26707;DHT22;14319;49.422;10.934;2022-08-25T04:49:41;16.40;89.50
26707;DHT22;14319;49.422;10.934;2022-08-25T04:51:41;16.50;88.80
26707;DHT22;14319;49.422;10.934;2022-08-25T04:53:43;16.60;89.40
26707;DHT22;14319;49.422;10.934;2022-08-25T04:55:46;16.60;88.50
26707;DHT22;14319;49.422;10.934;2022-08-25T04:57:47;16.50;88.30
26707;DHT22;14319;49.422;10.934;2022-08-25T04:59:48;16.50;87.90
26707;DHT22;14319;49.422;10.934;2022-08-25T05:01:49;16.60;87.00
26707;DHT22;14319;49.422;10.934;2022-08-25T05:03:55;16.60;86.70
26707;DHT22;14319;49.422;10.934;2022-08-25T05:05:57;16.10;87.70
26707;DHT22;14319;49.422;10.934;2022-08-25T05:07:58;15.70;90.00
26707;DHT22;14319;49.422;10.934;2022-08-25T05:09:59;15.80;90.20
26707;DHT22;14319;49.422;10.934;2022-08-25T05:12:01;15.90;90.30
26707;DHT22;14319;49.422;10.934;2022-08-25T05:14:01;16.00;89.90
26707;DHT22;14319;49.422;10.934;2022-08-25T05:16:02;16.20;89.30
26707;DHT22;14319;49.422;10.934;2022-08-25T05:18:03;16.20;88.40
26707;DHT22;14319;49.422;10.934;2022-08-25T05:20:05;16.40;87.80
26707;DHT22;14319;49.422;10.934;2022-08-25T05:22:06;16.40;87.40
26707;DHT22;14319;49.422;10.934;2022-08-25T05:24:06;16.40;87.40
26707;DHT22;14319;49.422;10.934;2022-08-25T05:26:10;16.30;88.50
26707;DHT22;14319;49.422;10.934;2022-08-25T05:28:11;16.30;88.40
26707;DHT22;14319;49.422;10.934;2022-08-25T05:30:14;16.40;87.80
26707;DHT22;14319;49.422;10.934;2022-08-25T05:32:14;16.30;88.90
26707;DHT22;14319;49.422;10.934;2022-08-25T05:34:15;16.20;89.20
26707;DHT22;14319;49.422;10.934;2022-08-25T05:36:21;16.30;89.50
26707;DHT22;14319;49.422;10.934;2022-08-25T05:38:22;16.40;89.30
26707;DHT22;14319;49.422;10.934;2022-08-25T05:40:23;16.40;89.20
26707;DHT22;14319;49.422;10.934;2022-08-25T05:42:24;16.40;89.40
26707;DHT22;14319;49.422;10.934;2022-08-25T05:44:25;16.50;89.50
26707;DHT22;14319;49.422;10.934;2022-08-25T05:46:26;16.50;90.40
26707;DHT22;14319;49.422;10.934;2022-08-25T05:48:27;16.50;90.50
26707;DHT22;14319;49.422;10.934;2022-08-25T05:50:28;16.60;90.30
26707;DHT22;14319;49.422;10.934;2022-08-25T05:52:29;16.60;90.00
26707;DHT22;14319;49.422;10.934;2022-08-25T05:54:29;16.60;89.50
26707;DHT22;14319;49.422;10.934;2022-08-25T05:56:31;16.70;90.00
26707;DHT22;14319;49.422;10.934;2022-08-25T05:58:31;16.70;90.10
26707;DHT22;14319;49.422;10.934;2022-08-25T06:00:32;16.70;89.80
26707;DHT22;14319;49.422;10.934;2022-08-25T06:02:33;16.70;90.30
26707;DHT22;14319;49.422;10.934;2022-08-25T06:04:48;16.70;90.60
26707;DHT22;14319;49.422;10.934;2022-08-25T06:06:49;16.70;90.70
26707;DHT22;14319;49.422;10.934;2022-08-25T06:08:53;16.80;90.80
26707;DHT22;14319;49.422;10.934;2022-08-25T06:10:54;16.90;90.50
26707;DHT22;14319;49.422;10.934;2022-08-25T06:12:55;16.90;90.80
26707;DHT22;14319;49.422;10.934;2022-08-25T06:14:56;17.00;89.90
26707;DHT22;14319;49.422;10.934;2022-08-25T06:16:57;17.10;90.00
26707;DHT22;14319;49.422;10.934;2022-08-25T06:18:59;17.10;90.40
26707;DHT22;14319;49.422;10.934;2022-08-25T06:21:08;17.20;91.50
26707;DHT22;14319;49.422;10.934;2022-08-25T06:23:09;17.20;91.60
26707;DHT22;14319;49.422;10.934;2022-08-25T06:25:11;17.30;92.10
26707;DHT22;14319;49.422;10.934;2022-08-25T06:27:12;17.30;92.00
26707;DHT22;14319;49.422;10.934;2022-08-25T06:29:13;17.40;91.80
26707;DHT22;14319;49.422;10.934;2022-08-25T06:31:14;17.40;91.60
26707;DHT22;14319;49.422;10.934;2022-08-25T06:33:15;17.50;91.80
26707;DHT22;14319;49.422;10.934;2022-08-25T06:35:17;17.50;92.00
26707;DHT22;14319;49.422;10.934;2022-08-25T06:37:18;17.50;92.30
26707;DHT22;14319;49.422;10.934;2022-08-25T06:39:20;17.60;92.10
26707;DHT22;14319;49.422;10.934;2022-08-25T06:41:21;17.70;93.10
26707;DHT22;14319;49.422;10.934;2022-08-25T06:43:22;17.70;93.50
26707;DHT22;14319;49.422;10.934;2022-08-25T06:45:23;17.70;93.90
26707;DHT22;14319;49.422;10.934;2022-08-25T06:47:24;17.80;93.10
26707;DHT22;14319;49.422;10.934;2022-08-25T06:49:25;17.70;93.00
26707;DHT22;14319;49.422;10.934;2022-08-25T06:51:28;17.70;93.30
26707;DHT22;14319;49.422;10.934;2022-08-25T06:53:29;17.70;93.70
26707;DHT22;14319;49.422;10.934;2022-08-25T06:55:30;17.80;93.70
26707;DHT22;14319;49.422;10.934;2022-08-25T06:57:31;17.80;92.80
26707;DHT22;14319;49.422;10.934;2022-08-25T06:59:35;17.80;94.40
26707;DHT22;14319;49.422;10.934;2022-08-25T07:01:36;17.80;93.30
26707;DHT22;14319;49.422;10.934;2022-08-25T07:03:37;17.80;93.10
26707;DHT22;14319;49.422;10.934;2022-08-25T07:05:38;17.80;93.00
26707;DHT22;14319;49.422;10.934;2022-08-25T07:07:39;17.70;93.20
26707;DHT22;14319;49.422;10.934;2022-08-25T07:09:39;17.70;93.70
26707;DHT22;14319;49.422;10.934;2022-08-25T07:11:41;17.60;93.70
26707;DHT22;14319;49.422;10.934;2022-08-25T07:13:44;17.60;93.70
26707;DHT22;14319;49.422;10.934;2022-08-25T07:15:45;17.60;94.30
26707;DHT22;14319;49.422;10.934;2022-08-25T07:17:46;17.60;94.20
26707;DHT22;14319;49.422;10.934;2022-08-25T07:19:48;17.60;93.90
26707;DHT22;14319;49.422;10.934;2022-08-25T07:21:52;17.70;93.30
26707;DHT22;14319;49.422;10.934;2022-08-25T07:23:53;17.80;93.20
26707;DHT22;14319;49.422;10.934;2022-08-25T07:25:55;17.90;93.20
26707;DHT22;14319;49.422;10.934;2022-08-25T07:27:56;17.90;93.20
26707;DHT22;14319;49.422;10.934;2022-08-25T07:29:57;18.00;92.40
26707;DHT22;14319;49.422;10.934;2022-08-25T07:31:58;18.00;92.90
26707;DHT22;14319;49.422;10.934;2022-08-25T07:33:59;18.10;92.70
26707;DHT22;14319;49.422;10.934;2022-08-25T07:36:19;18.20;93.40
26707;DHT22;14319;49.422;10.934;2022-08-25T07:38:20;18.30;92.80
26707;DHT22;14319;49.422;10.934;2022-08-25T07:40:27;18.50;92.40
26707;DHT22;14319;49.422;10.934;2022-08-25T07:42:29;18.70;91.20
26707;DHT22;14319;49.422;10.934;2022-08-25T07:44:29;18.80;91.20
26707;DHT22;14319;49.422;10.934;2022-08-25T07:46:31;18.90;90.80
26707;DHT22;14319;49.422;10.934;2022-08-25T07:48:31;19.00;89.80
26707;DHT22;14319;49.422;10.934;2022-08-25T07:50:33;19.20;88.70
26707;DHT22;14319;49.422;10.934;2022-08-25T07:52:34;19.20;89.20
26707;DHT22;14319;49.422;10.934;2022-08-25T07:54:35;19.40;88.10
26707;DHT22;14319;49.422;10.934;2022-08-25T07:56:37;19.50;88.30
26707;DHT22;14319;49.422;10.934;2022-08-25T07:58:39;19.70;87.30
26707;DHT22;14319;49.422;10.934;2022-08-25T08:00:40;19.80;86.50
26707;DHT22;14319;49.422;10.934;2022-08-25T08:02:42;20.00;85.40
26707;DHT22;14319;49.422;10.934;2022-08-25T08:04:42;20.00;85.10
26707;DHT22;14319;49.422;10.934;2022-08-25T08:06:45;20.00;85.70
26707;DHT22;14319;49.422;10.934;2022-08-25T08:08:47;20.10;85.50
26707;DHT22;14319;49.422;10.934;2022-08-25T08:10:49;20.10;85.20
26707;DHT22;14319;49.422;10.934;2022-08-25T08:12:51;20.20;85.00
26707;DHT22;14319;49.422;10.934;2022-08-25T08:14:52;20.20;84.20
26707;DHT22;14319;49.422;10.934;2022-08-25T08:16:53;20.20;84.00
26707;DHT22;14319;49.422;10.934;2022-08-25T08:18:55;20.10;83.80
26707;DHT22;14319;49.422;10.934;2022-08-25T08:20:56;20.20;83.70
26707;DHT22;14319;49.422;10.934;2022-08-25T08:22:57;20.20;84.20
26707;DHT22;14319;49.422;10.934;2022-08-25T08:24:57;20.20;84.30
26707;DHT22;14319;49.422;10.934;2022-08-25T08:26:58;20.30;83.90
26707;DHT22;14319;49.422;10.934;2022-08-25T08:28:59;20.30;83.20
26707;DHT22;14319;49.422;10.934;2022-08-25T08:31:00;20.30;83.30
26707;DHT22;14319;49.422;10.934;2022-08-25T08:33:01;20.40;83.90
26707;DHT22;14319;49.422;10.934;2022-08-25T08:35:03;20.40;83.80
26707;DHT22;14319;49.422;10.934;2022-08-25T08:37:05;20.50;82.90
26707;DHT22;14319;49.422;10.934;2022-08-25T08:39:06;20.60;82.10
26707;DHT22;14319;49.422;10.934;2022-08-25T08:44:02;20.60;82.50
26707;DHT22;14319;49.422;10.934;2022-08-25T08:46:06;20.70;81.70
26707;DHT22;14319;49.422;10.934;2022-08-25T08:48:16;20.90;81.60
26707;DHT22;14319;49.422;10.934;2022-08-25T08:52:46;21.00;80.80
26707;DHT22;14319;49.422;10.934;2022-08-25T08:55:02;21.10;80.30
26707;DHT22;14319;49.422;10.934;2022-08-25T08:57:16;21.10;80.40
26707;DHT22;14319;49.422;10.934;2022-08-25T08:59:25;21.40;78.80
26707;DHT22;14319;49.422;10.934;2022-08-25T09:01:43;21.50;79.50
26707;DHT22;14319;49.422;10.934;2022-08-25T09:03:51;21.60;77.70
26707;DHT22;14319;49.422;10.934;2022-08-25T09:05:57;21.70;78.00
26707;DHT22;14319;49.422;10.934;2022-08-25T09:08:16;21.60;78.00
26707;DHT22;14319;49.422;10.934;2022-08-25T09:10:18;21.50;77.20
26707;DHT22;14319;49.422;10.934;2022-08-25T09:12:36;21.60;77.60
26707;DHT22;14319;49.422;10.934;2022-08-25T09:17:01;22.00;77.60
26707;DHT22;14319;49.422;10.934;2022-08-25T09:19:28;22.10;77.20
26707;DHT22;14319;49.422;10.934;2022-08-25T09:21:36;22.10;75.30
26707;DHT22;14319;49.422;10.934;2022-08-25T09:23:50;22.00;75.80
26707;DHT22;14319;49.422;10.934;2022-08-25T09:28:07;21.90;75.10
26707;DHT22;14319;49.422;10.934;2022-08-25T09:30:12;22.00;76.00
26707;DHT22;14319;49.422;10.934;2022-08-25T09:32:14;22.10;73.60
26707;DHT22;14319;49.422;10.934;2022-08-25T09:34:22;22.10;75.10
26707;DHT22;14319;49.422;10.934;2022-08-25T09:36:23;22.50;74.60
26707;DHT22;14319;49.422;10.934;2022-08-25T09:38:27;22.60;74.00
26707;DHT22;14319;49.422;10.934;2022-08-25T09:40:34;22.70;72.60
26707;DHT22;14319;49.422;10.934;2022-08-25T09:42:50;22.90;73.30
26707;DHT22;14319;49.422;10.934;2022-08-25T09:44:51;23.10;72.80
26707;DHT22;14319;49.422;10.934;2022-08-25T09:47:04;23.10;72.50
26707;DHT22;14319;49.422;10.934;2022-08-25T09:49:11;22.90;70.60
26707;DHT22;14319;49.422;10.934;2022-08-25T09:51:27;23.00;72.20
26707;DHT22;14319;49.422;10.934;2022-08-25T09:53:28;23.00;69.40
26707;DHT22;14319;49.422;10.934;2022-08-25T09:55:31;23.10;72.20
26707;DHT22;14319;49.422;10.934;2022-08-25T09:57:45;23.20;72.70
26707;DHT22;14319;49.422;10.934;2022-08-25T09:59:46;23.60;69.00
26707;DHT22;14319;49.422;10.934;2022-08-25T10:01:58;23.80;69.40
26707;DHT22;14319;49.422;10.934;2022-08-25T10:04:03;23.80;68.70
26707;DHT22;14319;49.422;10.934;2022-08-25T10:06:07;23.80;69.00
26707;DHT22;14319;49.422;10.934;2022-08-25T10:08:20;24.00;67.90
26707;DHT22;14319;49.422;10.934;2022-08-25T10:10:31;23.90;68.10
26707;DHT22;14319;49.422;10.934;2022-08-25T10:12:40;24.00;68.50
26707;DHT22;14319;49.422;10.934;2022-08-25T10:14:40;24.10;68.80
26707;DHT22;14319;49.422;10.934;2022-08-25T10:16:42;24.20;69.20
26707;DHT22;14319;49.422;10.934;2022-08-25T10:18:43;24.40;67.50
26707;DHT22;14319;49.422;10.934;2022-08-25T10:21:17;24.40;68.10
26707;DHT22;14319;49.422;10.934;2022-08-25T10:23:18;24.40;66.90
26707;DHT22;14319;49.422;10.934;2022-08-25T10:25:30;24.50;67.60
26707;DHT22;14319;49.422;10.934;2022-08-25T10:30:22;24.50;67.60
26707;DHT22;14319;49.422;10.934;2022-08-25T10:34:56;24.40;68.10
26707;DHT22;14319;49.422;10.934;2022-08-25T10:39:24;24.20;67.00
26707;DHT22;14319;49.422;10.934;2022-08-25T10:42:05;24.30;67.30
26707;DHT22;14319;49.422;10.934;2022-08-25T10:46:29;24.20;67.50
26707;DHT22;14319;49.422;10.934;2022-08-25T10:48:41;24.20;66.10
26707;DHT22;14319;49.422;10.934;2022-08-25T10:53:13;24.20;67.80
26707;DHT22;14319;49.422;10.934;2022-08-25T10:55:21;24.40;68.30
26707;DHT22;14319;49.422;10.934;2022-08-25T11:00:13;24.40;67.40
26707;DHT22;14319;49.422;10.934;2022-08-25T11:02:36;24.40;66.90
26707;DHT22;14319;49.422;10.934;2022-08-25T11:07:26;24.50;67.00
26707;DHT22;14319;49.422;10.934;2022-08-25T11:09:33;24.50;65.30
26707;DHT22;14319;49.422;10.934;2022-08-25T11:11:46;24.40;66.30
26707;DHT22;14319;49.422;10.934;2022-08-25T11:16:00;24.50;67.10
26707;DHT22;14319;49.422;10.934;2022-08-25T11:18:13;24.70;66.60
26707;DHT22;14319;49.422;10.934;2022-08-25T11:20:16;24.70;64.90
26707;DHT22;14319;49.422;10.934;2022-08-25T11:22:26;24.80;67.00
26707;DHT22;14319;49.422;10.934;2022-08-25T11:26:53;25.20;64.80
26707;DHT22;14319;49.422;10.934;2022-08-25T11:29:16;25.50;65.60
26707;DHT22;14319;49.422;10.934;2022-08-25T11:31:19;25.60;63.70
26707;DHT22;14319;49.422;10.934;2022-08-25T11:33:22;25.70;62.40
26707;DHT22;14319;49.422;10.934;2022-08-25T11:35:30;25.80;62.70
26707;DHT22;14319;49.422;10.934;2022-08-25T11:37:32;25.80;60.90
26707;DHT22;14319;49.422;10.934;2022-08-25T11:40:36;25.80;62.20
26707;DHT22;14319;49.422;10.934;2022-08-25T11:44:42;26.00;61.20
26707;DHT22;14319;49.422;10.934;2022-08-25T11:49:02;26.00;61.70
26707;DHT22;14319;49.422;10.934;2022-08-25T11:51:11;25.90;60.60
26707;DHT22;14319;49.422;10.934;2022-08-25T11:53:27;26.10;61.10
26707;DHT22;14319;49.422;10.934;2022-08-25T11:55:51;26.20;59.40
26707;DHT22;14319;49.422;10.934;2022-08-25T11:58:14;26.20;60.20
26707;DHT22;14319;49.422;10.934;2022-08-25T12:04:40;26.10;60.20
26707;DHT22;14319;49.422;10.934;2022-08-25T12:11:06;26.20;58.40
26707;DHT22;14319;49.422;10.934;2022-08-25T12:13:40;26.40;57.70
26707;DHT22;14319;49.422;10.934;2022-08-25T12:17:42;26.40;57.90
26707;DHT22;14319;49.422;10.934;2022-08-25T12:21:44;26.60;58.30
26707;DHT22;14319;49.422;10.934;2022-08-25T12:24:04;26.60;57.90
26707;DHT22;14319;49.422;10.934;2022-08-25T12:30:44;26.60;58.60
26707;DHT22;14319;49.422;10.934;2022-08-25T12:32:56;26.70;57.60
26707;DHT22;14319;49.422;10.934;2022-08-25T12:37:16;26.80;57.50
26707;DHT22;14319;49.422;10.934;2022-08-25T12:39:20;27.00;57.90
26707;DHT22;14319;49.422;10.934;2022-08-25T12:41:25;27.00;57.60
26707;DHT22;14319;49.422;10.934;2022-08-25T12:43:28;27.00;59.10
26707;DHT22;14319;49.422;10.934;2022-08-25T12:47:33;26.90;56.80
26707;DHT22;14319;49.422;10.934;2022-08-25T12:49:34;26.90;56.40
26707;DHT22;14319;49.422;10.934;2022-08-25T12:51:51;26.90;57.30
26707;DHT22;14319;49.422;10.934;2022-08-25T12:56:35;26.70;57.40
26707;DHT22;14319;49.422;10.934;2022-08-25T13:03:46;26.70;56.70
26707;DHT22;14319;49.422;10.934;2022-08-25T13:06:12;26.80;56.10
26707;DHT22;14319;49.422;10.934;2022-08-25T13:08:35;26.90;56.40
26707;DHT22;14319;49.422;10.934;2022-08-25T13:12:58;26.90;57.30
26707;DHT22;14319;49.422;10.934;2022-08-25T13:15:00;26.90;57.30
26707;DHT22;14319;49.422;10.934;2022-08-25T13:17:02;27.00;57.10
26707;DHT22;14319;49.422;10.934;2022-08-25T13:19:05;27.00;55.70
26707;DHT22;14319;49.422;10.934;2022-08-25T13:23:40;26.90;56.70
26707;DHT22;14319;49.422;10.934;2022-08-25T13:25:48;26.90;56.50
26707;DHT22;14319;49.422;10.934;2022-08-25T13:27:56;26.70;56.20
26707;DHT22;14319;49.422;10.934;2022-08-25T13:29:58;26.80;56.20
26707;DHT22;14319;49.422;10.934;2022-08-25T13:32:02;26.70;56.20
26707;DHT22;14319;49.422;10.934;2022-08-25T13:34:07;26.50;55.80
26707;DHT22;14319;49.422;10.934;2022-08-25T13:36:15;26.70;55.70
26707;DHT22;14319;49.422;10.934;2022-08-25T13:38:35;26.70;56.10
26707;DHT22;14319;49.422;10.934;2022-08-25T13:40:35;26.70;56.00
26707;DHT22;14319;49.422;10.934;2022-08-25T13:42:44;26.50;56.20
26707;DHT22;14319;49.422;10.934;2022-08-25T13:44:46;26.50;56.30
26707;DHT22;14319;49.422;10.934;2022-08-25T13:46:47;26.50;56.20
26707;DHT22;14319;49.422;10.934;2022-08-25T13:49:07;26.60;56.80
26707;DHT22;14319;49.422;10.934;2022-08-25T13:51:20;26.60;57.10
26707;DHT22;14319;49.422;10.934;2022-08-25T13:53:24;26.70;57.60
26707;DHT22;14319;49.422;10.934;2022-08-25T13:57:44;27.10;57.90
26707;DHT22;14319;49.422;10.934;2022-08-25T13:59:53;27.10;57.20
26707;DHT22;14319;49.422;10.934;2022-08-25T14:01:55;27.10;56.40
26707;DHT22;14319;49.422;10.934;2022-08-25T14:06:23;27.10;55.00
26707;DHT22;14319;49.422;10.934;2022-08-25T14:08:37;27.00;57.20